Time;durP1;ratioP1;P1;durP2;ratioP2;P2;SDS_P1;SDS_P2;PMS_P1;PMS_P2;Temp;Humidity;BMP_temperature;BMP_pressure;BME280_temperature;BME280_humidity;BME280_pressure;Samples;Min_cycle;Max_cycle;Signal;HPM_P1;HPM_P2
2023/01/09 00:12:19;;;;;;;51.80;27.33;;;3.90;99.90;;;;;;5728413;24;20203;-81
2023/01/09 00:37:30;;;;;;;55.53;27.90;;;4.00;99.90;;;;;;5605361;25;20178;-84
2023/01/09 01:33:30;;;;;;;50.90;27.97;;;3.90;99.90;;;;;;5829268;24;20754;-81
2023/01/09 01:58:29;;;;;;;47.50;27.87;;;3.90;99.90;;;;;;5854412;24;20516;-82
2023/01/09 02:24:07;;;;;;;48.73;27.70;;;4.00;99.90;;;;;;5743914;24;21041;-83
2023/01/09 02:44:21;;;;;;;49.50;27.83;;;4.00;99.90;;;;;;5717895;24;20283;-83
2023/01/09 03:09:52;;;;;;;43.57;25.10;;;4.00;99.90;;;;;;5771057;24;20193;-83
2023/01/09 03:40:03;;;;;;;43.97;25.10;;;3.90;99.90;;;;;;5845107;24;20209;-81
2023/01/09 04:00:31;;;;;;;42.40;25.63;;;3.80;99.90;;;;;;5934333;23;20300;-84
2023/01/09 04:25:14;;;;;;;44.83;28.53;;;3.80;99.90;;;;;;5621733;24;20426;-83
2023/01/09 04:51:13;;;;;;;44.67;27.67;;;3.90;99.90;;;;;;5635754;24;20181;-81
2023/01/09 05:21:37;;;;;;;40.37;26.13;;;4.30;99.90;;;;;;5885301;23;20192;-81
2023/01/09 05:52:00;;;;;;;43.43;25.63;;;4.40;99.90;;;;;;5766641;24;20237;-83
2023/01/09 06:17:09;;;;;;;37.17;24.80;;;4.50;99.90;;;;;;5659874;24;20408;-83
2023/01/09 06:42:33;;;;;;;39.23;24.33;;;4.10;99.90;;;;;;5531257;25;20210;-82
2023/01/09 07:13:05;;;;;;;39.57;25.33;;;4.30;99.90;;;;;;5554870;24;20200;-81
2023/01/09 07:38:41;;;;;;;35.13;23.50;;;4.20;99.90;;;;;;5526494;25;20253;-81
2023/01/09 07:58:47;;;;;;;33.73;22.77;;;4.30;99.90;;;;;;5510779;24;20235;-81
2023/01/09 08:19:16;;;;;;;35.27;21.30;;;4.50;99.90;;;;;;5536515;24;20200;-81
2023/01/09 08:23:36;;;;;;;33.57;21.93;;;4.50;99.90;;;;;;5485636;24;20671;-81
2023/01/09 08:39:34;;;;;;;29.37;21.10;;;4.60;99.90;;;;;;5743200;24;20358;-81
2023/01/09 09:09:56;;;;;;;32.70;20.80;;;4.80;99.90;;;;;;5657780;24;20239;-80
2023/01/09 09:35:13;;;;;;;26.73;19.37;;;5.10;99.90;;;;;;5536643;24;20722;-81
2023/01/09 10:25:21;;;;;;;26.10;18.90;;;5.70;99.90;;;;;;5445790;25;20732;-83
2023/01/09 10:51:16;;;;;;;27.73;20.27;;;5.60;99.90;;;;;;5583497;24;20190;-79
2023/01/09 11:21:44;;;;;;;31.07;22.53;;;5.50;99.90;;;;;;5627092;24;20197;-80
2023/01/09 11:51:35;;;;;;;34.53;23.33;;;5.50;99.90;;;;;;5630010;24;20755;-82
2023/01/09 13:08:03;;;;;;;36.73;27.40;;;6.20;99.90;;;;;;5695406;24;20227;-81
2023/01/09 13:48:29;;;;;;;37.03;27.73;;;6.20;99.90;;;;;;5514482;24;20625;-80
2023/01/09 14:18:48;;;;;;;37.47;28.77;;;6.40;99.90;;;;;;5617432;24;20750;-80
2023/01/09 15:14:54;;;;;;;39.23;29.50;;;6.60;99.90;;;;;;5760116;24;20235;-84
2023/01/09 15:45:15;;;;;;;44.23;32.00;;;6.80;99.90;;;;;;5641150;24;20540;-84
2023/01/09 16:10:30;;;;;;;45.03;31.60;;;6.80;99.90;;;;;;5624625;24;20191;-83
2023/01/09 16:35:28;;;;;;;43.97;32.17;;;6.90;99.90;;;;;;5629488;25;20397;-84
2023/01/09 16:56:27;;;;;;;43.57;31.43;;;6.90;99.90;;;;;;5817159;24;20676;-83
2023/01/09 17:21:14;;;;;;;46.70;33.07;;;7.20;99.90;;;;;;5684506;24;20333;-83
2023/01/09 17:41:56;;;;;;;44.73;32.70;;;7.10;99.90;;;;;;5595208;25;20191;-83
2023/01/09 18:07:29;;;;;;;44.97;33.17;;;7.10;99.90;;;;;;5653131;25;20225;-84
2023/01/09 18:53:02;;;;;;;42.23;33.40;;;7.20;99.90;;;;;;6020567;23;20214;-83
2023/01/09 19:17:49;;;;;;;46.83;34.20;;;7.00;99.90;;;;;;5756038;24;20641;-85
2023/01/09 19:43:44;;;;;;;49.47;31.67;;;7.30;99.90;;;;;;5678586;24;20238;-83
2023/01/09 20:14:04;;;;;;;40.40;29.23;;;7.40;99.90;;;;;;6095143;23;20207;-84
2023/01/09 20:44:21;;;;;;;36.27;24.13;;;7.70;99.90;;;;;;5745715;24;20657;-83
2023/01/09 21:34:44;;;;;;;47.70;27.20;;;7.50;99.90;;;;;;5717969;24;20686;-84
2023/01/09 22:20:40;;;;;;;50.20;27.37;;;7.30;99.90;;;;;;5616004;25;20234;-82
2023/01/09 22:51:26;;;;;;;47.20;27.10;;;7.10;99.90;;;;;;5553826;25;20225;-83
2023/01/09 23:26:58;;;;;;;44.27;25.47;;;6.80;99.90;;;;;;5777017;24;20428;-83
2023/01/09 23:56:44;;;;;;;50.13;27.00;;;6.80;99.90;;;;;;5770692;24;20991;-83
